Lundys Lane, Pennsylvania
Current Conditions -  °F | °C
As of 8:53 AM on Monday 20 Oct 2014 (Local Time) from KHZY Reporting Station
Overcast Overcast  
Wind Chill: 42°   Ceiling: 8500
Heat Index: 47°   Visibility: 10mi
Dew Point: 39°   Wind: 10mph
Humidity: 74%   Direction: 190°S
Pressure: 29.94"   Gusts: NA
Location:  41.8831°N, 80.4041°W
Report Text: KHZY 201253Z AUTO 19009KT 10SM OVC085 08/04 A2994 RMK AO2 SLP143 T00830039
Loading
Personal Weather Stations






























Interactive Weather Map
Tropical Storm Tracking
New forecast layout! Learn more

10-Day Weather Forecast

Advertisements
Track Severe Weather on mobile